createdAt,value
2023-02-14T00:02:06.381Z,17.97
2023-02-14T00:04:34.424Z,17.83
2023-02-14T00:07:02.039Z,17.27
2023-02-14T00:09:29.776Z,18.00
2023-02-14T00:11:58.662Z,18.17
2023-02-14T00:14:43.988Z,19.60
2023-02-14T00:17:11.602Z,19.93
2023-02-14T00:19:39.215Z,19.80
2023-02-14T00:22:06.872Z,19.60
2023-02-14T00:24:34.447Z,19.50
2023-02-14T00:27:03.312Z,19.20
2023-02-14T00:29:32.564Z,16.73
2023-02-14T00:32:00.498Z,18.37
2023-02-14T00:34:29.083Z,17.20
2023-02-14T00:36:56.650Z,17.73
2023-02-14T00:39:24.188Z,19.47
2023-02-14T00:41:52.055Z,19.83
2023-02-14T00:44:20.978Z,19.80
2023-02-14T00:46:48.508Z,19.50
2023-02-14T00:49:16.170Z,19.37
2023-02-14T00:51:43.958Z,20.27
2023-02-14T00:54:11.508Z,19.87
2023-02-14T00:56:39.048Z,19.27
2023-02-14T00:59:06.607Z,18.63
2023-02-14T01:01:35.488Z,19.53
2023-02-14T01:04:03.042Z,18.13
2023-02-14T01:06:30.570Z,18.10
2023-02-14T01:08:58.446Z,19.70
2023-02-14T01:11:28.158Z,19.63
2023-02-14T01:13:57.996Z,18.97
2023-02-14T01:16:28.342Z,20.73
2023-02-14T01:18:57.720Z,21.20
2023-02-14T01:21:27.020Z,19.43
2023-02-14T01:23:59.594Z,18.00
2023-02-14T01:26:28.375Z,21.30
2023-02-14T01:28:56.464Z,19.17
2023-02-14T01:31:27.831Z,19.77
2023-02-14T01:33:57.238Z,19.87
2023-02-14T01:36:26.379Z,19.13
2023-02-14T01:38:55.221Z,20.00
2023-02-14T01:41:23.897Z,19.67
2023-02-14T01:43:53.722Z,21.33
2023-02-14T01:46:21.265Z,19.53
2023-02-14T01:48:49.015Z,20.03
2023-02-14T01:51:19.990Z,20.07
2023-02-14T01:53:48.430Z,19.67
2023-02-14T01:56:20.901Z,19.47
2023-02-14T01:58:50.732Z,18.57
2023-02-14T02:01:18.972Z,19.07
2023-02-14T02:03:49.749Z,19.23
2023-02-14T02:06:21.068Z,21.17
2023-02-14T02:08:53.402Z,19.90
2023-02-14T02:11:20.937Z,20.70
2023-02-14T02:13:48.689Z,18.00
2023-02-14T02:16:41.085Z,19.73
2023-02-14T02:19:37.672Z,19.80
2023-02-14T02:22:15.702Z,19.97
2023-02-14T02:24:50.127Z,19.20
2023-02-14T02:27:27.540Z,20.57
2023-02-14T02:30:30.344Z,20.03
2023-02-14T02:33:19.557Z,20.03
2023-02-14T02:36:04.372Z,21.10
2023-02-14T02:38:46.152Z,20.53
2023-02-14T02:41:20.439Z,21.57
2023-02-14T02:43:55.121Z,20.67
2023-02-14T02:46:43.747Z,21.27
2023-02-14T02:49:37.365Z,22.40
2023-02-14T02:52:26.980Z,22.37
2023-02-14T02:54:58.198Z,21.10
2023-02-14T02:57:29.683Z,23.17
2023-02-14T02:59:57.983Z,23.17
2023-02-14T03:02:29.325Z,21.33
2023-02-14T03:04:57.984Z,21.77
2023-02-14T03:07:39.459Z,22.57
2023-02-14T03:10:10.496Z,21.73
2023-02-14T03:12:53.424Z,21.97
2023-02-14T03:15:23.769Z,21.73
2023-02-14T03:17:59.351Z,23.53
2023-02-14T03:20:33.800Z,23.03
2023-02-14T03:23:05.737Z,23.00
2023-02-14T03:25:42.266Z,21.97
2023-02-14T03:28:14.542Z,23.40
2023-02-14T03:30:48.413Z,22.63
2023-02-14T03:33:19.909Z,23.30
2023-02-14T03:35:52.403Z,21.27
2023-02-14T03:38:26.144Z,23.93
2023-02-14T03:40:58.288Z,22.97
2023-02-14T03:43:28.460Z,23.47
2023-02-14T03:45:59.302Z,23.53
2023-02-14T03:48:27.709Z,23.40
2023-02-14T03:50:56.080Z,23.80
2023-02-14T03:53:27.636Z,22.80
2023-02-14T03:55:59.691Z,22.97
2023-02-14T03:58:29.688Z,23.07
2023-02-14T04:01:01.212Z,23.53
2023-02-14T04:03:29.835Z,22.37
2023-02-14T04:05:57.475Z,21.60
2023-02-14T04:08:30.151Z,23.53
2023-02-14T04:11:00.555Z,23.17
2023-02-14T04:13:28.990Z,22.97
2023-02-14T04:15:56.605Z,24.07
2023-02-14T04:18:42.090Z,25.23
2023-02-14T04:21:09.820Z,23.63
2023-02-14T04:23:38.681Z,27.75
2023-02-14T04:26:06.254Z,24.43
2023-02-14T04:28:34.264Z,30.27
2023-02-14T04:31:03.212Z,24.23
2023-02-14T04:33:31.313Z,24.87
2023-02-14T04:35:58.877Z,23.97
2023-02-14T04:38:26.429Z,24.87
2023-02-14T04:40:55.357Z,26.73
2023-02-14T04:43:22.905Z,25.43
2023-02-14T04:45:50.408Z,25.43
2023-02-14T04:48:18.005Z,25.13
2023-02-14T04:50:45.496Z,25.67
2023-02-14T04:53:13.003Z,24.33
2023-02-14T04:55:40.579Z,24.47
2023-02-14T04:58:09.414Z,24.90
2023-02-14T05:00:37.063Z,25.70
2023-02-14T05:03:04.766Z,24.17
2023-02-14T05:05:32.247Z,22.97
2023-02-14T05:07:59.732Z,24.80
2023-02-14T05:10:27.291Z,24.40
2023-02-14T05:12:54.786Z,25.60
2023-02-14T05:15:23.717Z,24.30
2023-02-14T05:17:51.224Z,25.07
2023-02-14T05:20:19.063Z,25.30
2023-02-14T05:22:46.595Z,25.77
2023-02-14T05:25:14.242Z,22.77
2023-02-14T05:27:41.748Z,24.10
2023-02-14T05:30:10.494Z,23.77
2023-02-14T05:32:39.393Z,23.83
2023-02-14T05:35:07.652Z,22.87
2023-02-14T05:37:35.205Z,24.07
2023-02-14T05:40:02.722Z,22.70
2023-02-14T05:42:30.219Z,23.80
2023-02-14T05:44:57.761Z,25.80
2023-02-14T05:47:25.367Z,26.20
2023-02-14T05:49:54.259Z,24.57
2023-02-14T05:52:21.903Z,26.20
2023-02-14T05:54:49.417Z,24.07
2023-02-14T05:57:16.953Z,25.13
2023-02-14T05:59:44.491Z,24.93
2023-02-14T06:02:12.015Z,25.00
2023-02-14T06:04:39.680Z,26.63
2023-02-14T06:07:08.828Z,24.93
2023-02-14T06:09:36.314Z,25.13
2023-02-14T06:12:04.196Z,23.57
2023-02-14T06:14:31.744Z,24.70
2023-02-14T06:16:59.379Z,25.00
2023-02-14T06:19:26.977Z,24.10
2023-02-14T06:21:54.718Z,23.77
2023-02-14T06:24:23.892Z,24.43
2023-02-14T06:26:51.412Z,24.97
2023-02-14T06:29:19.386Z,24.20
2023-02-14T06:31:47.081Z,24.43
2023-02-14T06:34:16.123Z,23.30
2023-02-14T06:36:43.853Z,24.27
2023-02-14T06:39:11.408Z,26.00
2023-02-14T06:41:40.265Z,25.40
2023-02-14T06:44:08.847Z,24.83
2023-02-14T06:46:36.399Z,23.57
2023-02-14T06:49:03.958Z,24.43
2023-02-14T06:51:31.517Z,22.20
2023-02-14T06:53:59.021Z,21.53
2023-02-14T06:56:26.554Z,22.33
2023-02-14T06:58:55.431Z,22.73
2023-02-14T07:01:23.111Z,22.30
2023-02-14T07:03:50.939Z,22.83
2023-02-14T07:06:18.519Z,22.03
2023-02-14T07:08:46.040Z,23.23
2023-02-14T07:11:13.553Z,22.77
2023-02-14T07:13:41.200Z,21.50
2023-02-14T07:16:10.242Z,22.40
2023-02-14T07:18:37.926Z,22.23
2023-02-14T07:21:05.737Z,23.80
2023-02-14T07:23:33.523Z,23.77
2023-02-14T07:26:01.012Z,22.87
2023-02-14T07:28:30.370Z,24.43
2023-02-14T07:31:00.640Z,23.47
2023-02-14T07:33:29.906Z,24.67
2023-02-14T07:35:57.626Z,23.20
2023-02-14T07:38:25.485Z,22.87
2023-02-14T07:40:54.925Z,22.50
2023-02-14T07:43:22.439Z,24.63
2023-02-14T07:45:50.043Z,21.90
2023-02-14T07:48:17.602Z,23.97
2023-02-14T07:50:46.494Z,20.57
2023-02-14T07:53:14.054Z,21.77
2023-02-14T07:55:41.602Z,22.20
2023-02-14T07:58:09.208Z,21.10
2023-02-14T08:00:37.130Z,22.77
2023-02-14T08:03:04.736Z,23.13
2023-02-14T08:05:32.233Z,20.67
2023-02-14T08:08:01.260Z,22.60
2023-02-14T08:10:28.849Z,23.03
2023-02-14T08:13:03.466Z,23.27
2023-02-14T08:15:50.570Z,20.47
2023-02-14T08:18:18.937Z,23.00
2023-02-14T08:20:48.620Z,21.50
2023-02-14T08:23:17.946Z,21.33
2023-02-14T08:25:45.537Z,21.93
2023-02-14T08:28:13.686Z,23.80
2023-02-14T08:30:41.788Z,20.97
2023-02-14T08:33:09.862Z,22.97
2023-02-14T08:35:37.542Z,24.87
2023-02-14T08:38:05.730Z,23.07
2023-02-14T08:40:35.175Z,22.80
2023-02-14T08:43:02.760Z,22.20
2023-02-14T08:45:30.361Z,19.60
2023-02-14T08:48:02.155Z,21.70
2023-02-14T08:50:30.296Z,19.50
2023-02-14T08:52:58.137Z,21.77
2023-02-14T08:55:25.738Z,23.40
2023-02-14T08:57:56.527Z,23.87
2023-02-14T09:00:24.305Z,20.53
2023-02-14T09:02:52.596Z,20.50
2023-02-14T09:05:20.542Z,20.07
2023-02-14T09:07:48.197Z,21.67
2023-02-14T09:10:16.926Z,21.03
2023-02-14T09:12:44.581Z,20.17
2023-02-14T09:15:13.771Z,22.07
2023-02-14T09:17:41.946Z,20.83
2023-02-14T09:20:11.488Z,21.07
2023-02-14T09:22:39.591Z,20.07
2023-02-14T09:25:07.416Z,19.57
2023-02-14T09:27:35.037Z,18.63
2023-02-14T09:30:02.772Z,18.40
2023-02-14T09:32:31.809Z,18.43
2023-02-14T09:35:17.422Z,19.07
2023-02-14T09:37:44.934Z,17.67
2023-02-14T09:40:14.467Z,19.70
2023-02-14T09:42:49.458Z,19.60
2023-02-14T09:45:20.770Z,18.60
2023-02-14T09:47:53.949Z,18.17
2023-02-14T09:50:25.302Z,18.47
2023-02-14T09:52:57.532Z,19.57
2023-02-14T09:55:27.105Z,17.10
2023-02-14T09:58:08.187Z,17.20
2023-02-14T10:00:39.601Z,16.63
2023-02-14T10:03:22.663Z,16.43
2023-02-14T10:05:56.447Z,17.07
2023-02-14T10:08:33.355Z,16.87
2023-02-14T10:11:05.307Z,15.83
2023-02-14T10:13:38.808Z,15.93
2023-02-14T10:16:12.610Z,15.97
2023-02-14T10:18:46.224Z,17.53
2023-02-14T10:21:20.250Z,16.17
2023-02-14T10:23:53.777Z,17.00
2023-02-14T10:26:26.036Z,15.10
2023-02-14T10:28:54.220Z,16.60
2023-02-14T10:31:23.171Z,17.10
2023-02-14T10:33:57.529Z,14.60
2023-02-14T10:36:47.031Z,15.63
2023-02-14T10:39:44.517Z,14.80
2023-02-14T10:42:18.257Z,13.80
2023-02-14T10:44:49.468Z,14.60
2023-02-14T10:47:27.648Z,14.27
2023-02-14T10:49:59.796Z,14.40
2023-02-14T10:52:31.119Z,15.03
2023-02-14T10:55:00.297Z,14.47
2023-02-14T10:57:29.743Z,13.57
2023-02-14T10:59:59.570Z,14.20
2023-02-14T11:02:33.143Z,13.20
2023-02-14T11:05:03.861Z,14.60
2023-02-14T11:07:31.460Z,14.30
2023-02-14T11:09:59.225Z,12.57
2023-02-14T11:12:35.322Z,13.50
2023-02-14T11:15:20.375Z,12.97
2023-02-14T11:17:48.028Z,14.00
2023-02-14T11:20:26.448Z,15.27
2023-02-14T11:22:54.409Z,14.97
2023-02-14T11:25:23.526Z,13.77
2023-02-14T11:27:55.483Z,14.17
2023-02-14T11:30:27.596Z,14.30
2023-02-14T11:32:56.311Z,13.67
2023-02-14T11:35:34.441Z,13.90
2023-02-14T11:38:03.485Z,14.33
2023-02-14T11:40:32.742Z,14.83
2023-02-14T11:43:13.991Z,14.47
2023-02-14T11:45:43.684Z,15.83
2023-02-14T11:48:24.805Z,13.63
2023-02-14T11:51:03.433Z,14.33
2023-02-14T11:53:46.748Z,13.53
2023-02-14T11:56:15.130Z,13.43
2023-02-14T11:58:47.210Z,14.13
2023-02-14T12:01:24.091Z,12.83
2023-02-14T12:03:52.380Z,13.60
2023-02-14T12:06:25.304Z,13.20
2023-02-14T12:08:52.866Z,14.40
2023-02-14T12:11:22.195Z,14.07
2023-02-14T12:13:54.688Z,12.73
2023-02-14T12:16:27.466Z,13.03
2023-02-14T12:18:59.971Z,12.13
2023-02-14T12:21:44.134Z,13.20
2023-02-14T12:24:21.975Z,13.03
2023-02-14T12:26:53.345Z,13.60
2023-02-14T12:29:26.369Z,13.07
2023-02-14T12:31:55.690Z,13.00
2023-02-14T12:34:23.264Z,14.53
2023-02-14T12:37:05.013Z,12.70
2023-02-14T12:39:37.585Z,13.60
2023-02-14T12:42:15.693Z,14.70
2023-02-14T12:44:47.161Z,13.60
2023-02-14T12:47:18.967Z,13.13
2023-02-14T12:50:01.472Z,14.53
2023-02-14T12:52:40.876Z,13.13
2023-02-14T12:55:26.355Z,13.83
2023-02-14T12:57:57.642Z,14.57
2023-02-14T13:00:33.033Z,13.80
2023-02-14T13:03:26.928Z,14.47
2023-02-14T13:05:59.734Z,13.97
2023-02-14T13:08:44.104Z,13.60
2023-02-14T13:11:17.438Z,15.17
2023-02-14T13:13:55.829Z,12.90
2023-02-14T13:16:28.014Z,14.87
2023-02-14T13:19:00.457Z,13.23
2023-02-14T13:21:31.261Z,14.07
2023-02-14T13:24:07.640Z,14.47
2023-02-14T13:26:39.009Z,14.43
2023-02-14T13:29:10.610Z,14.40
2023-02-14T13:31:38.956Z,16.43
2023-02-14T13:34:10.081Z,14.13
2023-02-14T13:36:38.022Z,14.23
2023-02-14T13:39:07.949Z,14.33
2023-02-14T13:41:35.804Z,14.67
2023-02-14T13:44:05.337Z,14.20
2023-02-14T13:46:52.642Z,15.60
2023-02-14T13:49:27.450Z,14.13
2023-02-14T13:51:56.445Z,14.27
2023-02-14T13:54:35.955Z,14.20
2023-02-14T13:57:05.827Z,16.73
2023-02-14T13:59:34.965Z,15.77
2023-02-14T14:02:40.047Z,15.37
2023-02-14T14:05:42.760Z,14.50
2023-02-14T14:08:52.041Z,15.27
2023-02-14T14:12:00.817Z,14.27
2023-02-14T14:14:39.557Z,14.20
2023-02-14T14:17:21.828Z,14.53
2023-02-14T14:19:50.274Z,15.67
2023-02-14T14:22:19.860Z,16.20
2023-02-14T14:25:01.892Z,14.63
2023-02-14T14:27:33.098Z,15.20
2023-02-14T14:30:02.917Z,14.47
2023-02-14T14:32:32.303Z,15.43
2023-02-14T14:35:00.978Z,12.50
2023-02-14T14:37:29.845Z,13.73
2023-02-14T14:39:59.161Z,14.70
2023-02-14T14:42:28.633Z,17.80
2023-02-14T14:44:58.127Z,13.80
2023-02-14T14:47:28.851Z,14.70
2023-02-14T14:50:00.325Z,13.43
2023-02-14T14:52:35.064Z,14.03
2023-02-14T14:55:04.224Z,14.50
2023-02-14T14:57:31.791Z,13.87
2023-02-14T15:00:22.147Z,14.73
2023-02-14T15:03:03.806Z,15.13
2023-02-14T15:05:33.846Z,13.30
2023-02-14T15:08:17.551Z,14.43
2023-02-14T15:10:49.270Z,14.37
2023-02-14T15:13:34.707Z,14.93
2023-02-14T15:16:03.926Z,15.17
2023-02-14T15:18:32.981Z,13.97
2023-02-14T15:21:01.294Z,22.87
2023-02-14T15:23:29.154Z,15.53
2023-02-14T15:25:56.887Z,14.90
2023-02-14T15:28:28.938Z,14.67
2023-02-14T15:30:59.406Z,15.07
2023-02-14T15:33:27.520Z,13.63
2023-02-14T15:35:57.894Z,14.53
2023-02-14T15:38:26.242Z,15.53
2023-02-14T15:40:54.617Z,15.07
2023-02-14T15:43:30.763Z,14.87
2023-02-14T15:46:00.328Z,18.98
2023-02-14T15:48:30.184Z,19.23
2023-02-14T15:51:00.533Z,15.57
2023-02-14T15:53:34.549Z,14.53
2023-02-14T15:56:08.243Z,15.27
2023-02-14T15:58:36.708Z,16.30
2023-02-14T16:01:04.829Z,16.70
2023-02-14T16:03:35.976Z,15.87
2023-02-14T16:06:05.704Z,15.63
2023-02-14T16:08:35.396Z,15.30
2023-02-14T16:11:05.076Z,17.60
2023-02-14T16:13:34.556Z,16.17
2023-02-14T16:16:03.788Z,18.47
2023-02-14T16:18:37.140Z,18.53
2023-02-14T16:21:18.195Z,18.00
2023-02-14T16:23:46.444Z,18.43
2023-02-14T16:26:14.818Z,19.07
2023-02-14T16:28:43.467Z,18.40
2023-02-14T16:31:16.765Z,19.57
2023-02-14T16:33:44.442Z,19.90
2023-02-14T16:36:18.931Z,18.70
2023-02-14T16:38:47.031Z,18.27
2023-02-14T16:41:17.728Z,17.80
2023-02-14T16:43:45.843Z,17.27
2023-02-14T16:46:14.795Z,16.67
2023-02-14T16:48:42.552Z,16.43
2023-02-14T16:51:12.196Z,17.20
2023-02-14T16:53:42.257Z,16.80
2023-02-14T16:56:14.768Z,18.63
2023-02-14T16:58:42.471Z,18.13
2023-02-14T17:01:10.124Z,20.50
2023-02-14T17:03:39.900Z,19.43
2023-02-14T17:06:08.164Z,20.90
2023-02-14T17:08:35.931Z,18.93
2023-02-14T17:11:06.235Z,18.43
2023-02-14T17:13:34.982Z,20.10
2023-02-14T17:16:02.687Z,18.53
2023-02-14T17:18:31.585Z,20.20
2023-02-14T17:21:00.474Z,19.87
2023-02-14T17:23:28.408Z,20.40
2023-02-14T17:25:56.331Z,19.20
2023-02-14T17:28:26.539Z,18.57
2023-02-14T17:30:54.577Z,17.67
2023-02-14T17:33:22.892Z,15.33
2023-02-14T17:35:51.028Z,15.30
2023-02-14T17:38:20.125Z,15.67
2023-02-14T17:40:47.670Z,15.63
2023-02-14T17:43:15.386Z,15.07
2023-02-14T17:45:44.252Z,15.67
2023-02-14T17:48:11.893Z,14.87
2023-02-14T17:50:39.719Z,14.40
2023-02-14T17:53:07.235Z,16.17
2023-02-14T17:55:37.316Z,15.37
2023-02-14T17:58:05.379Z,16.23
2023-02-14T18:00:32.942Z,15.03
2023-02-14T18:03:01.901Z,17.67
2023-02-14T18:05:29.514Z,17.37
2023-02-14T18:07:57.816Z,18.37
2023-02-14T18:10:25.340Z,18.67
2023-02-14T18:12:52.829Z,19.83
2023-02-14T18:15:20.913Z,17.93
2023-02-14T18:17:50.015Z,17.40
2023-02-14T18:20:19.210Z,19.23
2023-02-14T18:22:46.799Z,20.53
2023-02-14T18:25:14.476Z,20.43
2023-02-14T18:27:41.984Z,17.53
2023-02-14T18:30:10.804Z,16.27
2023-02-14T18:32:38.337Z,16.03
2023-02-14T18:35:06.501Z,16.77
2023-02-14T18:37:35.562Z,17.50
2023-02-14T18:40:03.894Z,19.20
2023-02-14T18:42:31.734Z,19.23
2023-02-14T18:44:59.244Z,19.03
2023-02-14T18:47:27.047Z,20.50
2023-02-14T18:49:54.678Z,18.50
2023-02-14T18:52:22.278Z,18.97
2023-02-14T18:54:51.872Z,17.40
2023-02-14T18:57:19.374Z,20.47
2023-02-14T18:59:47.087Z,18.50
2023-02-14T19:02:14.914Z,17.67
2023-02-14T19:04:42.748Z,18.37
2023-02-14T19:07:10.310Z,18.10
2023-02-14T19:09:40.200Z,18.17
2023-02-14T19:12:09.510Z,18.23
2023-02-14T19:14:37.466Z,17.43
2023-02-14T19:17:05.672Z,18.23
2023-02-14T19:19:33.269Z,14.57
2023-02-14T19:22:01.620Z,15.13
2023-02-14T19:24:29.204Z,19.50
2023-02-14T19:26:57.718Z,16.10
2023-02-14T19:29:26.837Z,17.87
2023-02-14T19:31:55.651Z,16.70
2023-02-14T19:34:25.312Z,18.87
2023-02-14T19:36:54.487Z,17.27
2023-02-14T19:39:22.995Z,15.67
2023-02-14T19:41:52.242Z,13.40
2023-02-14T19:44:19.874Z,19.10
2023-02-14T19:46:48.866Z,15.47
2023-02-14T19:49:17.881Z,16.30
2023-02-14T19:51:46.141Z,16.27
2023-02-14T19:54:14.036Z,13.30
2023-02-14T19:56:44.180Z,14.67
2023-02-14T19:59:15.161Z,13.20
2023-02-14T20:01:46.244Z,12.83
2023-02-14T20:04:17.475Z,12.50
2023-02-14T20:06:45.839Z,13.90
2023-02-14T20:09:14.163Z,13.83
2023-02-14T20:11:46.620Z,12.30
2023-02-14T20:14:17.456Z,14.13
2023-02-14T20:16:45.523Z,13.93
2023-02-14T20:19:17.377Z,12.63
2023-02-14T20:21:45.782Z,11.57
2023-02-14T20:24:16.710Z,11.47
2023-02-14T20:26:44.264Z,11.70
2023-02-14T20:29:12.235Z,11.67
2023-02-14T20:31:42.068Z,11.77
2023-02-14T20:34:10.238Z,10.77
2023-02-14T20:36:39.497Z,10.30
2023-02-14T20:39:08.424Z,11.90
2023-02-14T20:41:36.425Z,10.50
2023-02-14T20:44:05.577Z,11.47
2023-02-14T20:46:33.604Z,11.63
2023-02-14T20:49:01.519Z,11.00
2023-02-14T20:51:29.376Z,11.80
2023-02-14T20:53:58.322Z,12.17
2023-02-14T20:56:25.838Z,12.37
2023-02-14T20:58:53.789Z,12.67
2023-02-14T21:01:22.804Z,11.83
2023-02-14T21:03:51.938Z,12.90
2023-02-14T21:06:20.967Z,11.67
2023-02-14T21:08:49.513Z,12.87
2023-02-14T21:11:19.841Z,13.30
2023-02-14T21:13:48.072Z,15.03
2023-02-14T21:16:17.556Z,13.80
2023-02-14T21:18:48.646Z,12.10
2023-02-14T21:21:19.890Z,13.00
2023-02-14T21:23:49.090Z,12.87
2023-02-14T21:26:18.318Z,12.07
2023-02-14T21:28:46.349Z,11.73
2023-02-14T21:31:15.925Z,12.67
2023-02-14T21:33:43.537Z,11.90
2023-02-14T21:36:12.900Z,12.77
2023-02-14T21:38:40.805Z,11.30
2023-02-14T21:41:09.782Z,11.83
2023-02-14T21:43:40.319Z,10.67
2023-02-14T21:46:08.392Z,11.53
2023-02-14T21:48:54.059Z,10.60
2023-02-14T21:51:22.158Z,10.93
2023-02-14T21:53:50.060Z,15.93
2023-02-14T21:56:20.127Z,12.67
2023-02-14T21:58:49.859Z,11.13
2023-02-14T22:01:18.844Z,13.70
2023-02-14T22:03:46.736Z,12.93
2023-02-14T22:06:14.650Z,13.27
2023-02-14T22:08:42.853Z,11.97
2023-02-14T22:11:12.298Z,12.67
2023-02-14T22:13:39.867Z,12.77
2023-02-14T22:16:10.671Z,11.10
2023-02-14T22:18:38.529Z,13.73
2023-02-14T22:21:07.733Z,12.63
2023-02-14T22:23:35.978Z,11.50
2023-02-14T22:26:14.174Z,12.90
2023-02-14T22:28:42.620Z,14.63
2023-02-14T22:31:12.340Z,12.43
2023-02-14T22:33:39.926Z,10.63
2023-02-14T22:36:08.849Z,11.10
2023-02-14T22:38:37.150Z,11.87
2023-02-14T22:41:09.223Z,10.90
2023-02-14T22:43:37.315Z,12.07
2023-02-14T22:46:06.087Z,11.10
2023-02-14T22:48:35.973Z,11.60
2023-02-14T22:51:11.112Z,10.27
2023-02-14T22:53:39.770Z,11.63
2023-02-14T22:56:14.987Z,12.83
2023-02-14T22:58:42.716Z,15.43
2023-02-14T23:01:14.063Z,10.93
2023-02-14T23:03:43.128Z,11.97
2023-02-14T23:06:11.152Z,12.70
2023-02-14T23:08:39.953Z,12.37
2023-02-14T23:11:09.431Z,12.80
2023-02-14T23:13:55.177Z,12.47
2023-02-14T23:16:40.657Z,14.57
2023-02-14T23:19:29.671Z,12.43
2023-02-14T23:21:57.397Z,13.73
2023-02-14T23:24:25.346Z,13.33
2023-02-14T23:26:56.101Z,12.57
2023-02-14T23:29:23.874Z,12.03
2023-02-14T23:31:51.543Z,11.97
2023-02-14T23:34:20.892Z,13.03
2023-02-14T23:36:48.435Z,12.03
2023-02-14T23:39:15.998Z,12.00
2023-02-14T23:41:49.902Z,12.77
2023-02-14T23:44:21.959Z,11.90
2023-02-14T23:46:50.603Z,11.40
2023-02-14T23:49:19.837Z,11.60
2023-02-14T23:51:49.245Z,13.27
2023-02-14T23:54:17.367Z,11.20
2023-02-14T23:56:45.646Z,11.20
2023-02-14T23:59:14.429Z,9.87
